createdAt,value
2023-05-24T00:00:29.014Z,55.85
2023-05-24T00:03:22.487Z,55.42
2023-05-24T00:05:56.115Z,55.18
2023-05-24T00:08:28.934Z,55.10
2023-05-24T00:11:01.767Z,54.77
2023-05-24T00:13:34.675Z,54.63
2023-05-24T00:16:07.756Z,54.54
2023-05-24T00:18:41.730Z,54.06
2023-05-24T00:21:14.689Z,53.94
2023-05-24T00:23:47.717Z,53.82
2023-05-24T00:26:21.851Z,54.51
2023-05-24T00:28:59.991Z,55.68
2023-05-24T00:31:33.471Z,56.66
2023-05-24T00:34:06.736Z,56.53
2023-05-24T00:36:39.640Z,56.83
2023-05-24T00:39:12.617Z,56.60
2023-05-24T00:41:45.517Z,56.22
2023-05-24T00:44:18.781Z,55.82
2023-05-24T00:46:52.395Z,55.53
2023-05-24T00:49:27.237Z,54.97
2023-05-24T00:52:01.449Z,54.49
2023-05-24T00:54:34.284Z,54.35
2023-05-24T00:57:08.774Z,54.00
2023-05-24T00:59:41.767Z,53.69
2023-05-24T01:02:14.792Z,53.56
2023-05-24T01:04:49.884Z,53.58
2023-05-24T01:07:29.329Z,53.34
2023-05-24T01:10:11.937Z,53.28
2023-05-24T01:12:57.824Z,53.67
2023-05-24T01:15:43.155Z,53.96
2023-05-24T01:18:22.548Z,54.98
2023-05-24T01:21:17.868Z,55.44
2023-05-24T01:24:06.490Z,55.92
2023-05-24T01:26:49.862Z,56.68
2023-05-24T01:29:23.936Z,57.15
2023-05-24T01:31:58.403Z,56.93
2023-05-24T01:34:31.308Z,57.60
2023-05-24T01:37:04.093Z,58.04
2023-05-24T01:39:38.789Z,57.94
2023-05-24T01:42:22.521Z,57.98
2023-05-24T01:45:04.619Z,58.18
2023-05-24T01:47:49.364Z,58.41
2023-05-24T01:50:28.366Z,59.37
2023-05-24T01:53:05.642Z,59.48
2023-05-24T01:55:40.928Z,59.59
2023-05-24T01:58:15.379Z,59.95
2023-05-24T02:00:49.265Z,60.38
2023-05-24T02:03:22.817Z,60.20
2023-05-24T02:05:55.880Z,60.38
2023-05-24T02:08:29.298Z,60.41
2023-05-24T02:11:02.837Z,60.50
2023-05-24T02:13:36.696Z,60.70
2023-05-24T02:16:11.090Z,61.68
2023-05-24T02:18:46.960Z,62.36
2023-05-24T02:21:20.067Z,62.55
2023-05-24T02:23:53.626Z,62.69
2023-05-24T02:26:26.501Z,63.39
2023-05-24T02:28:59.394Z,63.66
2023-05-24T02:31:32.361Z,63.93
2023-05-24T02:34:05.482Z,64.37
2023-05-24T02:36:38.412Z,64.66
2023-05-24T02:39:11.586Z,64.58
2023-05-24T02:41:44.518Z,65.20
2023-05-24T02:44:17.593Z,65.45
2023-05-24T02:46:50.518Z,65.50
2023-05-24T02:49:23.777Z,65.46
2023-05-24T02:51:57.674Z,65.68
2023-05-24T02:54:30.523Z,66.22
2023-05-24T02:57:04.037Z,66.80
2023-05-24T02:59:37.421Z,66.92
2023-05-24T03:02:10.325Z,66.92
2023-05-24T03:04:44.230Z,67.32
2023-05-24T03:07:17.710Z,67.92
2023-05-24T03:09:50.673Z,67.97
2023-05-24T03:12:23.532Z,67.98
2023-05-24T03:14:57.620Z,67.92
2023-05-24T03:17:31.917Z,68.21
2023-05-24T03:20:08.224Z,68.20
2023-05-24T03:22:41.765Z,68.22
2023-05-24T03:25:14.810Z,68.43
2023-05-24T03:27:47.988Z,68.74
2023-05-24T03:30:21.685Z,69.07
2023-05-24T03:33:01.020Z,69.30
2023-05-24T03:35:34.662Z,69.39
2023-05-24T03:38:07.582Z,69.52
2023-05-24T03:40:41.410Z,69.37
2023-05-24T03:43:22.228Z,69.33
2023-05-24T03:46:01.931Z,69.18
2023-05-24T03:48:34.878Z,69.44
2023-05-24T03:51:09.909Z,69.48
2023-05-24T03:53:42.779Z,69.50
2023-05-24T03:56:16.181Z,69.52
2023-05-24T03:58:49.394Z,69.42
2023-05-24T04:01:33.420Z,69.39
2023-05-24T04:04:08.260Z,69.35
2023-05-24T04:06:42.333Z,69.52
2023-05-24T04:09:15.995Z,69.42
2023-05-24T04:11:48.913Z,69.38
2023-05-24T04:14:22.243Z,69.31
2023-05-24T04:16:55.372Z,69.45
2023-05-24T04:19:29.106Z,69.40
2023-05-24T04:22:02.036Z,69.10
2023-05-24T04:24:34.969Z,69.22
2023-05-24T04:27:10.203Z,69.39
2023-05-24T04:29:46.637Z,69.29
2023-05-24T04:32:20.972Z,69.19
2023-05-24T04:34:56.460Z,69.15
2023-05-24T04:37:30.124Z,69.09
2023-05-24T04:40:04.529Z,68.95
2023-05-24T04:42:37.625Z,68.96
2023-05-24T04:45:12.384Z,68.93
2023-05-24T04:47:45.451Z,68.79
2023-05-24T04:50:18.408Z,68.86
2023-05-24T04:52:51.278Z,68.76
2023-05-24T04:55:24.419Z,68.68
2023-05-24T04:57:57.300Z,68.61
2023-05-24T05:00:30.328Z,68.46
2023-05-24T05:03:04.060Z,68.14
2023-05-24T05:05:37.333Z,68.18
2023-05-24T05:08:10.202Z,68.29
2023-05-24T05:10:43.429Z,68.25
2023-05-24T05:13:16.684Z,67.94
2023-05-24T05:15:49.694Z,68.22
2023-05-24T05:18:22.674Z,67.86
2023-05-24T05:20:55.683Z,67.62
2023-05-24T05:23:29.554Z,67.59
2023-05-24T05:26:02.910Z,67.02
2023-05-24T05:28:35.917Z,67.16
2023-05-24T05:31:08.775Z,66.48
2023-05-24T05:33:42.954Z,66.49
2023-05-24T05:36:16.088Z,66.29
2023-05-24T05:38:49.752Z,66.35
2023-05-24T05:41:22.726Z,66.34
2023-05-24T05:43:56.208Z,66.07
2023-05-24T05:46:29.169Z,65.53
2023-05-24T05:49:02.173Z,65.29
2023-05-24T05:51:35.100Z,65.54
2023-05-24T05:54:09.009Z,65.34
2023-05-24T05:56:45.882Z,65.17
2023-05-24T05:59:19.750Z,65.07
2023-05-24T06:01:52.737Z,64.99
2023-05-24T06:04:25.698Z,64.83
2023-05-24T06:06:58.607Z,64.36
2023-05-24T06:09:31.445Z,63.89
2023-05-24T06:12:04.975Z,64.18
2023-05-24T06:14:38.583Z,63.89
2023-05-24T06:17:11.549Z,63.84
2023-05-24T06:19:44.918Z,63.33
2023-05-24T06:22:17.846Z,62.95
2023-05-24T06:24:51.230Z,62.62
2023-05-24T06:27:24.114Z,62.29
2023-05-24T06:29:57.859Z,61.79
2023-05-24T06:32:30.721Z,61.42
2023-05-24T06:35:04.287Z,61.22
2023-05-24T06:37:38.770Z,61.38
2023-05-24T06:40:13.504Z,61.74
2023-05-24T06:42:46.371Z,61.40
2023-05-24T06:45:19.749Z,61.63
2023-05-24T06:47:52.636Z,61.97
2023-05-24T06:50:25.541Z,61.95
2023-05-24T06:52:58.346Z,61.99
2023-05-24T06:55:31.298Z,61.86
2023-05-24T06:58:04.154Z,62.03
2023-05-24T07:00:37.783Z,62.55
2023-05-24T07:03:11.512Z,62.64
2023-05-24T07:05:44.485Z,62.26
2023-05-24T07:08:17.384Z,61.97
2023-05-24T07:10:50.209Z,61.97
2023-05-24T07:13:23.396Z,61.99
2023-05-24T07:15:56.405Z,62.31
2023-05-24T07:18:29.387Z,62.41
2023-05-24T07:21:02.327Z,62.89
2023-05-24T07:23:35.807Z,63.41
2023-05-24T07:26:09.437Z,63.58
2023-05-24T07:28:42.381Z,63.62
2023-05-24T07:31:15.213Z,63.53
2023-05-24T07:33:48.911Z,63.39
2023-05-24T07:36:22.376Z,63.55
2023-05-24T07:38:55.667Z,63.43
2023-05-24T07:41:30.628Z,63.33
2023-05-24T07:44:03.491Z,63.32
2023-05-24T07:46:36.367Z,63.38
2023-05-24T07:49:09.953Z,63.60
2023-05-24T07:51:42.984Z,63.29
2023-05-24T07:54:16.255Z,63.24
2023-05-24T07:56:50.438Z,63.13
2023-05-24T07:59:23.826Z,63.19
2023-05-24T08:02:01.776Z,62.99
2023-05-24T08:04:35.639Z,62.55
2023-05-24T08:07:11.096Z,62.63
2023-05-24T08:09:44.134Z,62.87
2023-05-24T08:12:17.365Z,63.07
2023-05-24T08:14:50.870Z,62.65
2023-05-24T08:17:23.842Z,62.77
2023-05-24T08:19:57.237Z,62.70
2023-05-24T08:22:30.067Z,62.89
2023-05-24T08:25:03.888Z,62.91
2023-05-24T08:27:37.269Z,62.96
2023-05-24T08:30:13.918Z,63.20
2023-05-24T08:32:46.962Z,63.03
2023-05-24T08:35:21.460Z,63.06
2023-05-24T08:37:54.817Z,63.11
2023-05-24T08:40:28.118Z,63.36
2023-05-24T08:43:03.356Z,63.32
2023-05-24T08:45:41.387Z,63.83
2023-05-24T08:48:15.273Z,63.95
2023-05-24T08:50:49.169Z,64.31
2023-05-24T08:53:25.982Z,64.08
2023-05-24T08:55:59.418Z,64.36
2023-05-24T08:58:33.182Z,64.23
2023-05-24T09:01:07.544Z,64.56
2023-05-24T09:03:42.399Z,64.69
2023-05-24T09:06:18.209Z,64.64
2023-05-24T09:08:52.805Z,64.68
2023-05-24T09:11:28.041Z,64.62
2023-05-24T09:14:02.158Z,64.98
2023-05-24T09:16:35.820Z,65.27
2023-05-24T09:19:08.751Z,65.44
2023-05-24T09:21:42.019Z,65.52
2023-05-24T09:24:15.572Z,65.03
2023-05-24T09:26:50.768Z,64.89
2023-05-24T09:29:26.685Z,64.88
2023-05-24T09:32:00.640Z,64.52
2023-05-24T09:34:41.683Z,64.49
2023-05-24T09:37:17.207Z,64.54
2023-05-24T09:39:51.750Z,64.48
2023-05-24T09:42:26.899Z,64.73
2023-05-24T09:45:06.768Z,64.57
2023-05-24T09:47:42.006Z,64.18
2023-05-24T09:50:18.204Z,64.08
2023-05-24T09:52:54.891Z,64.34
2023-05-24T09:55:31.170Z,64.30
2023-05-24T09:58:09.836Z,63.87
2023-05-24T10:00:44.203Z,63.61
2023-05-24T10:03:17.336Z,63.36
2023-05-24T10:05:51.655Z,63.77
2023-05-24T10:08:24.792Z,63.93
2023-05-24T10:10:58.693Z,63.72
2023-05-24T10:13:31.716Z,63.72
2023-05-24T10:16:04.783Z,63.67
2023-05-24T10:18:37.986Z,63.55
2023-05-24T10:21:12.484Z,63.42
2023-05-24T10:23:53.431Z,63.33
2023-05-24T10:26:30.976Z,63.05
2023-05-24T10:29:09.424Z,62.78
2023-05-24T10:31:45.153Z,62.69
2023-05-24T10:34:18.491Z,61.98
2023-05-24T10:36:52.011Z,61.90
2023-05-24T10:39:26.917Z,62.24
2023-05-24T10:42:03.564Z,60.82
2023-05-24T10:44:37.428Z,60.75
2023-05-24T10:47:14.691Z,60.39
2023-05-24T10:49:53.540Z,60.26
2023-05-24T10:52:37.272Z,60.01
2023-05-24T10:55:12.162Z,60.28
2023-05-24T10:57:45.114Z,60.07
2023-05-24T11:00:35.627Z,59.55
2023-05-24T11:03:12.041Z,59.39
2023-05-24T11:05:55.909Z,59.16
2023-05-24T11:08:35.590Z,58.93
2023-05-24T11:11:24.471Z,58.78
2023-05-24T11:14:02.291Z,58.69
2023-05-24T11:16:40.725Z,58.90
2023-05-24T11:19:18.887Z,58.72
2023-05-24T11:21:58.973Z,58.41
2023-05-24T11:24:32.487Z,58.05
2023-05-24T11:27:06.322Z,56.88
2023-05-24T11:29:46.157Z,57.29
2023-05-24T11:32:24.248Z,57.19
2023-05-24T11:34:58.047Z,56.67
2023-05-24T11:37:42.490Z,55.77
2023-05-24T11:40:20.437Z,56.43
2023-05-24T11:42:53.743Z,56.58
2023-05-24T11:45:26.833Z,56.08
2023-05-24T11:48:06.035Z,55.55
2023-05-24T11:50:49.469Z,56.06
2023-05-24T11:53:23.392Z,55.93
2023-05-24T11:55:57.555Z,56.26
2023-05-24T11:58:50.942Z,56.34
2023-05-24T12:01:28.749Z,56.03
2023-05-24T12:04:02.046Z,55.36
2023-05-24T12:06:43.302Z,55.38
2023-05-24T12:09:18.233Z,55.55
2023-05-24T12:11:52.736Z,55.53
2023-05-24T12:14:31.308Z,55.36
2023-05-24T12:17:05.181Z,55.52
2023-05-24T12:19:38.575Z,55.65
2023-05-24T12:22:11.646Z,55.56
2023-05-24T12:24:44.715Z,55.45
2023-05-24T12:27:17.556Z,55.34
2023-05-24T12:29:50.660Z,55.23
2023-05-24T12:32:23.646Z,54.98
2023-05-24T12:34:56.658Z,54.90
2023-05-24T12:37:34.085Z,54.98
2023-05-24T12:40:15.900Z,54.76
2023-05-24T12:42:51.755Z,54.83
2023-05-24T12:45:26.123Z,54.53
2023-05-24T12:48:02.925Z,54.83
2023-05-24T12:50:36.111Z,54.61
2023-05-24T12:53:08.993Z,54.57
2023-05-24T12:55:43.358Z,54.35
2023-05-24T12:58:17.606Z,54.28
2023-05-24T13:00:52.337Z,54.18
2023-05-24T13:03:25.483Z,54.09
2023-05-24T13:06:00.099Z,54.42
2023-05-24T13:08:33.018Z,54.32
2023-05-24T13:11:06.079Z,54.54
2023-05-24T13:13:39.804Z,54.55
2023-05-24T13:16:12.760Z,54.61
2023-05-24T13:18:47.356Z,54.64
2023-05-24T13:21:20.774Z,54.32
2023-05-24T13:23:54.080Z,54.02
2023-05-24T13:26:27.033Z,53.38
2023-05-24T13:31:38.156Z,53.01
2023-05-24T13:34:11.764Z,53.01
2023-05-24T13:36:46.695Z,52.91
2023-05-24T13:39:19.981Z,53.10
2023-05-24T13:41:53.042Z,53.48
2023-05-24T13:44:26.149Z,53.89
2023-05-24T13:46:59.238Z,53.99
2023-05-24T13:49:32.383Z,54.08
2023-05-24T13:52:05.391Z,53.87
2023-05-24T13:54:38.699Z,53.75
2023-05-24T13:57:11.557Z,53.96
2023-05-24T13:59:44.601Z,53.44
2023-05-24T14:02:18.881Z,53.74
2023-05-24T14:04:52.627Z,53.45
2023-05-24T14:07:25.592Z,53.35
2023-05-24T14:09:58.586Z,53.86
2023-05-24T14:12:31.857Z,54.11
2023-05-24T14:15:06.742Z,53.83
2023-05-24T14:17:39.717Z,53.96
2023-05-24T14:20:13.855Z,54.07
2023-05-24T14:22:46.986Z,54.09
2023-05-24T14:25:20.110Z,54.62
2023-05-24T14:27:53.019Z,54.28
2023-05-24T14:30:26.044Z,54.28
2023-05-24T14:32:59.367Z,53.94
2023-05-24T14:35:38.281Z,53.75
2023-05-24T14:38:12.854Z,53.51
2023-05-24T14:40:47.797Z,53.67
2023-05-24T14:43:20.951Z,54.19
2023-05-24T14:45:53.928Z,54.47
2023-05-24T14:48:27.146Z,54.74
2023-05-24T14:51:00.178Z,54.76
2023-05-24T14:53:33.169Z,54.89
2023-05-24T14:56:08.528Z,55.11
2023-05-24T14:58:41.484Z,55.47
2023-05-24T15:01:14.451Z,55.16
2023-05-24T15:03:47.814Z,54.82
2023-05-24T15:06:21.187Z,54.86
2023-05-24T15:08:56.324Z,54.84
2023-05-24T15:11:29.338Z,54.86
2023-05-24T15:14:03.525Z,55.08
2023-05-24T15:16:37.691Z,55.37
2023-05-24T15:19:10.671Z,55.53
2023-05-24T15:21:43.665Z,55.64
2023-05-24T15:24:16.704Z,55.53
2023-05-24T15:26:49.752Z,55.35
2023-05-24T15:29:22.860Z,55.32
2023-05-24T15:31:58.730Z,55.42
2023-05-24T15:34:31.705Z,55.51
2023-05-24T15:37:04.618Z,56.14
2023-05-24T15:39:37.664Z,56.43
2023-05-24T15:42:10.977Z,56.18
2023-05-24T15:44:44.030Z,56.03
2023-05-24T15:47:17.565Z,56.19
2023-05-24T15:49:51.602Z,56.21
2023-05-24T15:52:24.442Z,56.19
2023-05-24T15:54:57.361Z,56.24
2023-05-24T15:57:30.413Z,56.29
2023-05-24T16:00:04.038Z,56.08
2023-05-24T16:02:46.035Z,55.72
2023-05-24T16:05:22.751Z,56.26
2023-05-24T16:07:55.686Z,56.23
2023-05-24T16:10:28.590Z,56.17
2023-05-24T16:13:01.417Z,56.02
2023-05-24T16:15:36.108Z,56.23
2023-05-24T16:18:09.737Z,56.58
2023-05-24T16:20:42.945Z,56.94
2023-05-24T16:23:16.413Z,57.22
2023-05-24T16:25:49.503Z,57.44
2023-05-24T16:28:24.983Z,57.58
2023-05-24T16:30:58.878Z,57.55
2023-05-24T16:33:31.901Z,57.63
2023-05-24T16:36:05.017Z,57.53
2023-05-24T16:38:38.326Z,57.84
2023-05-24T16:41:11.539Z,57.93
2023-05-24T16:43:44.487Z,57.98
2023-05-24T16:46:17.521Z,58.28
2023-05-24T16:48:50.949Z,58.40
2023-05-24T16:51:24.536Z,58.55
2023-05-24T16:53:57.486Z,58.50
2023-05-24T16:56:30.688Z,58.73
2023-05-24T16:59:03.537Z,58.97
2023-05-24T17:01:37.741Z,59.18
2023-05-24T17:04:10.685Z,59.61
2023-05-24T17:06:43.768Z,59.56
2023-05-24T17:09:16.976Z,59.74
2023-05-24T17:11:50.916Z,59.62
2023-05-24T17:14:24.044Z,59.71
2023-05-24T17:16:56.945Z,59.89
2023-05-24T17:19:29.868Z,59.90
2023-05-24T17:22:02.752Z,60.04
2023-05-24T17:24:35.789Z,60.30
2023-05-24T17:27:09.169Z,60.67
2023-05-24T17:29:44.753Z,60.81
2023-05-24T17:32:17.767Z,60.96
2023-05-24T17:34:50.750Z,60.90
2023-05-24T17:37:23.750Z,61.08
2023-05-24T17:39:56.625Z,61.27
2023-05-24T17:42:29.628Z,61.55
2023-05-24T17:45:02.860Z,61.77
2023-05-24T17:47:35.867Z,61.79
2023-05-24T17:50:11.145Z,61.97
2023-05-24T17:52:43.943Z,62.04
2023-05-24T17:55:17.000Z,62.27
2023-05-24T17:57:50.880Z,62.68
2023-05-24T18:00:24.158Z,62.81
2023-05-24T18:02:57.067Z,63.22
2023-05-24T18:05:30.211Z,63.26
2023-05-24T18:08:03.607Z,63.43
2023-05-24T18:10:36.658Z,63.86
2023-05-24T18:13:10.620Z,64.19
2023-05-24T18:15:44.410Z,64.46
2023-05-24T18:18:17.655Z,64.36
2023-05-24T18:20:52.325Z,64.51
2023-05-24T18:23:25.357Z,64.48
2023-05-24T18:26:00.605Z,64.55
2023-05-24T18:28:37.872Z,64.70
2023-05-24T18:31:11.897Z,64.67
2023-05-24T18:33:45.405Z,64.98
2023-05-24T18:36:18.464Z,65.11
2023-05-24T18:38:51.325Z,65.41
2023-05-24T18:41:24.245Z,65.46
2023-05-24T18:43:57.211Z,65.77
2023-05-24T18:46:30.109Z,65.87
2023-05-24T18:49:03.496Z,66.02
2023-05-24T18:51:38.032Z,66.26
2023-05-24T18:54:11.020Z,66.26
2023-05-24T18:56:45.909Z,66.33
2023-05-24T18:59:18.921Z,66.52
2023-05-24T19:01:53.638Z,66.73
2023-05-24T19:04:26.744Z,66.90
2023-05-24T19:06:59.999Z,66.99
2023-05-24T19:09:32.935Z,67.22
2023-05-24T19:12:09.892Z,67.89
2023-05-24T19:14:43.121Z,67.93
2023-05-24T19:17:16.003Z,67.71
2023-05-24T19:19:49.584Z,67.68
2023-05-24T19:22:22.636Z,67.88
2023-05-24T19:24:56.154Z,67.91
2023-05-24T19:27:29.093Z,68.20
2023-05-24T19:30:01.965Z,68.56
2023-05-24T19:32:35.971Z,68.89
2023-05-24T19:35:11.286Z,69.55
2023-05-24T19:37:44.178Z,69.61
2023-05-24T19:40:17.066Z,69.80
2023-05-24T19:42:49.931Z,69.85
2023-05-24T19:45:22.913Z,70.00
2023-05-24T19:47:55.918Z,70.03
2023-05-24T19:50:31.152Z,70.61
2023-05-24T19:53:04.650Z,70.82
2023-05-24T19:55:38.128Z,71.19
2023-05-24T19:58:11.164Z,71.35
2023-05-24T20:00:44.020Z,71.47
2023-05-24T20:03:17.060Z,71.60
2023-05-24T20:05:50.001Z,71.94
2023-05-24T20:08:22.933Z,72.22
2023-05-24T20:10:56.048Z,72.59
2023-05-24T20:13:29.000Z,72.67
2023-05-24T20:16:03.019Z,73.06
2023-05-24T20:18:36.525Z,73.13
2023-05-24T20:21:09.527Z,73.44
2023-05-24T20:23:44.279Z,73.29
2023-05-24T20:26:17.282Z,73.64
2023-05-24T20:28:52.343Z,73.73
2023-05-24T20:31:25.298Z,73.70
2023-05-24T20:33:58.155Z,73.98
2023-05-24T20:36:32.324Z,74.15
2023-05-24T20:39:05.527Z,74.49
2023-05-24T20:41:38.425Z,74.39
2023-05-24T20:44:11.252Z,74.74
2023-05-24T20:46:44.161Z,74.70
2023-05-24T20:49:17.019Z,74.73
2023-05-24T20:51:50.019Z,74.87
2023-05-24T20:54:22.947Z,74.87
2023-05-24T20:56:55.848Z,75.34
2023-05-24T20:59:29.432Z,75.29
2023-05-24T21:02:02.295Z,75.50
2023-05-24T21:04:35.301Z,75.44
2023-05-24T21:07:09.266Z,75.46
2023-05-24T21:09:42.127Z,75.54
2023-05-24T21:12:15.057Z,75.81
2023-05-24T21:14:48.151Z,75.83
2023-05-24T21:17:20.974Z,76.00
2023-05-24T21:19:53.856Z,75.92
2023-05-24T21:22:26.743Z,76.02
2023-05-24T21:24:59.860Z,75.95
2023-05-24T21:27:32.727Z,76.03
2023-05-24T21:30:06.215Z,76.26
2023-05-24T21:32:39.213Z,76.50
2023-05-24T21:35:13.132Z,76.65
2023-05-24T21:37:46.595Z,76.65
2023-05-24T21:40:19.732Z,76.77
2023-05-24T21:42:52.620Z,76.93
2023-05-24T21:45:25.453Z,76.78
2023-05-24T21:47:58.390Z,76.87
2023-05-24T21:50:31.930Z,76.84
2023-05-24T21:53:05.220Z,76.92
2023-05-24T21:55:38.152Z,76.84
2023-05-24T21:58:11.096Z,77.00
2023-05-24T22:00:44.002Z,77.09
2023-05-24T22:03:17.014Z,77.21
2023-05-24T22:05:50.207Z,77.22
2023-05-24T22:08:23.083Z,77.23
2023-05-24T22:10:56.713Z,77.53
2023-05-24T22:13:29.607Z,77.78
2023-05-24T22:16:02.552Z,77.93
2023-05-24T22:18:35.622Z,77.73
2023-05-24T22:21:08.635Z,77.88
2023-05-24T22:23:41.549Z,77.83
2023-05-24T22:26:17.274Z,77.74
2023-05-24T22:28:55.359Z,77.73
2023-05-24T22:31:29.112Z,77.58
2023-05-24T22:34:02.899Z,77.66
2023-05-24T22:36:38.152Z,77.62
2023-05-24T22:39:11.735Z,77.63
2023-05-24T22:41:44.602Z,77.75
2023-05-24T22:44:17.659Z,78.05
2023-05-24T22:46:54.058Z,78.21
2023-05-24T22:49:29.813Z,78.38
2023-05-24T22:52:02.837Z,78.38
2023-05-24T22:54:35.849Z,78.35
2023-05-24T22:57:08.878Z,78.31
2023-05-24T22:59:42.986Z,78.40
2023-05-24T23:02:15.955Z,78.35
2023-05-24T23:04:49.424Z,78.21
2023-05-24T23:07:22.388Z,78.16
2023-05-24T23:09:55.300Z,77.95
2023-05-24T23:12:28.288Z,77.96
2023-05-24T23:15:01.151Z,78.13
2023-05-24T23:17:34.084Z,78.71
2023-05-24T23:20:10.379Z,78.52
2023-05-24T23:22:43.437Z,78.49
2023-05-24T23:25:16.263Z,78.64
2023-05-24T23:27:49.231Z,78.64
2023-05-24T23:30:22.270Z,78.56
2023-05-24T23:32:55.129Z,78.71
2023-05-24T23:35:27.989Z,78.84
2023-05-24T23:38:01.555Z,78.95
2023-05-24T23:40:34.600Z,79.39
2023-05-24T23:43:07.512Z,79.37
2023-05-24T23:45:40.448Z,79.46
2023-05-24T23:48:13.310Z,79.42
2023-05-24T23:50:53.956Z,79.45
2023-05-24T23:53:27.817Z,79.22
2023-05-24T23:56:00.745Z,79.25
2023-05-24T23:58:33.680Z,79.21
